Portada
METAR-TAF:

METAR-TAF

Aeropuertos :

Aeropuerto Internacional de Doha

Doha, Qatar

latitud: 25-15-40N, longitud: 051-33-54E, altitud: 11 m

Observación

El informe se hizo hace 17 minutos, a las 22:30 UTC
Viento 4 kt del noroeste, variando entre oeste y norte-noroeste
Temperatura 15°C
Humedad 67%
Presión 1020 hPa
Visibilidad 10 km o más
sin nubes por debajo de 1500 m y sin presencia de cumulonimbus.

METAR: OTBD 242230Z AUTO 31004KT 280V340 CAVOK 15/09 Q1020 NOSIG

Hora: 01:47 (22:47 UTC)

Pronóstico

El informe se hizo hace 5 horas y 36 minutos, a las 17:11 UTC
Pronóstico válido del 24 a las 18 UTC al 25 a las 24 UTC
Viento 5 kt del oeste-noroeste
Visibilidad: 8000 m
Evolucionando progresivamente
del 25 a las 02 UTC al 25 a las 04 UTC
Viento 2 kt con dirección variable

TAF: OTBD 241711Z 2418/2524 29005KT 8000 NSC BECMG 2502/2504 VRB02KT

Observaciones y pronósticos meteorológicos de más de 4000 aeropuertos (mensajes METAR y TAF).

Los puntos amarillos y rojos representan las estaciones disponibles.

Ponga el ratón en el punto deseado para ver el nombre de la estación.

Haga clic para ver las observaciones y los pronósticos meteorológicos.

Para cambiar el mapa : haga clic en los botones verdes con una cruz de color negro para hacer un zoom, en el botón verde con un guión para alejar o en las flechas verdes para mapas adyacentes.


METAR-TAF: